Time;durP1;ratioP1;P1;durP2;ratioP2;P2;SDS_P1;SDS_P2;PMS_P1;PMS_P2;Temp;Humidity;BMP_temperature;BMP_pressure;BME280_temperature;BME280_humidity;BME280_pressure;Samples;Min_cycle;Max_cycle;Signal;HPM_P1;HPM_P2
2022/09/15 00:01:25;;;;;;;3.70;2.00;;;12.50;99.90;;;;;;5021624;28;20124;-71
2022/09/15 00:03:52;;;;;;;3.30;1.90;;;12.60;99.90;;;;;;5023115;28;20430;-70
2022/09/15 00:06:18;;;;;;;3.83;2.08;;;12.60;99.90;;;;;;5040228;28;20043;-71
2022/09/15 00:08:45;;;;;;;5.65;2.15;;;12.60;99.90;;;;;;5024082;28;20472;-71
2022/09/15 00:11:15;;;;;;;4.03;2.10;;;12.60;99.90;;;;;;5037697;28;20116;-70
2022/09/15 00:13:41;;;;;;;6.05;2.17;;;12.60;99.90;;;;;;5042514;28;20406;-71
2022/09/15 00:16:09;;;;;;;4.30;2.10;;;12.50;99.90;;;;;;5045101;28;20040;-71
2022/09/15 00:18:37;;;;;;;3.90;2.05;;;12.50;99.90;;;;;;5027161;28;20069;-71
2022/09/15 00:21:08;;;;;;;5.80;2.30;;;12.50;99.90;;;;;;5041022;28;20079;-72
2022/09/15 00:23:34;;;;;;;5.63;2.43;;;12.60;99.90;;;;;;5038992;28;20075;-71
2022/09/15 00:26:01;;;;;;;5.07;2.70;;;12.50;99.90;;;;;;5028788;28;20041;-71
2022/09/15 00:28:27;;;;;;;4.00;2.40;;;12.50;99.90;;;;;;5025072;28;20042;-69
2022/09/15 00:30:53;;;;;;;5.25;2.30;;;12.50;99.90;;;;;;5040722;28;20087;-70
2022/09/15 00:33:21;;;;;;;4.32;2.50;;;12.50;99.90;;;;;;5044757;28;20037;-71
2022/09/15 00:35:49;;;;;;;3.53;2.50;;;12.50;99.90;;;;;;5045203;28;20120;-71
2022/09/15 00:38:15;;;;;;;4.35;2.78;;;12.50;99.90;;;;;;5058194;28;20399;-71
2022/09/15 00:40:54;;;;;;;6.10;2.90;;;12.40;99.90;;;;;;5039960;28;20037;-71
2022/09/15 00:43:40;;;;;;;7.53;2.97;;;12.40;99.90;;;;;;5039150;28;20393;-70
2022/09/15 00:46:06;;;;;;;4.03;2.78;;;12.40;99.90;;;;;;5039841;28;20110;-71
2022/09/15 00:48:34;;;;;;;6.28;2.95;;;12.40;99.90;;;;;;5023324;28;20033;-70
2022/09/15 00:51:02;;;;;;;5.05;3.13;;;12.40;99.90;;;;;;5022716;28;20094;-69
2022/09/15 00:53:30;;;;;;;4.43;3.03;;;12.50;99.90;;;;;;5043394;28;20037;-71
2022/09/15 00:55:58;;;;;;;6.75;3.55;;;12.50;99.90;;;;;;5046592;28;20116;-70
2022/09/15 00:58:35;;;;;;;5.53;3.05;;;12.50;99.90;;;;;;5041534;28;20051;-70
2022/09/15 01:01:03;;;;;;;4.82;3.22;;;12.60;99.90;;;;;;5029970;28;20131;-70
2022/09/15 01:03:32;;;;;;;4.82;3.35;;;12.60;99.90;;;;;;5037353;28;20075;-71
2022/09/15 01:06:26;;;;;;;3.88;3.10;;;12.60;99.90;;;;;;5028185;28;20044;-71
2022/09/15 01:09:02;;;;;;;8.10;3.70;;;12.60;99.90;;;;;;5034580;28;20134;-71
2022/09/15 01:11:28;;;;;;;8.05;4.05;;;12.70;99.90;;;;;;5045362;28;20037;-70
2022/09/15 01:13:54;;;;;;;5.60;4.00;;;12.70;99.90;;;;;;5024853;28;20052;-69
2022/09/15 01:16:59;;;;;;;9.07;4.70;;;12.70;99.90;;;;;;5039403;28;20041;-70
2022/09/15 01:19:40;;;;;;;6.93;4.43;;;12.70;99.90;;;;;;5017970;28;20257;-70
2022/09/15 01:22:24;;;;;;;6.35;4.60;;;12.70;99.90;;;;;;5045217;28;20135;-70
2022/09/15 01:24:59;;;;;;;9.75;5.05;;;12.70;99.90;;;;;;5025499;28;20040;-70
2022/09/15 01:27:40;;;;;;;6.95;4.72;;;12.70;99.90;;;;;;5048282;28;20128;-70
2022/09/15 01:30:08;;;;;;;10.18;5.55;;;12.80;99.90;;;;;;5046670;28;20045;-69
2022/09/15 01:33:04;;;;;;;8.80;5.20;;;12.70;99.90;;;;;;5034846;28;20112;-70
2022/09/15 01:35:50;;;;;;;6.97;5.10;;;12.80;99.90;;;;;;5046433;28;20114;-70
2022/09/15 01:38:50;;;;;;;8.77;5.47;;;12.80;99.90;;;;;;5051199;28;20036;-70
2022/09/15 01:41:24;;;;;;;7.45;4.82;;;12.80;99.90;;;;;;5032175;28;20090;-70
2022/09/15 01:44:04;;;;;;;11.85;4.75;;;12.80;99.90;;;;;;5033955;28;20064;-69
2022/09/15 01:46:39;;;;;;;8.75;4.53;;;12.80;99.90;;;;;;5047834;28;20037;-69
2022/09/15 01:49:09;;;;;;;7.50;3.55;;;12.90;99.90;;;;;;5049095;28;20111;-69
2022/09/15 01:51:35;;;;;;;9.15;4.30;;;12.90;99.90;;;;;;5046524;28;20534;-70
2022/09/15 01:54:04;;;;;;;5.88;3.00;;;12.90;99.90;;;;;;5050561;28;20115;-69
2022/09/15 01:56:30;;;;;;;10.10;3.78;;;12.90;99.90;;;;;;5030793;28;20044;-69
2022/09/15 01:58:56;;;;;;;7.70;3.25;;;12.90;99.90;;;;;;5050864;28;20040;-69
2022/09/15 02:01:30;;;;;;;4.53;2.55;;;13.00;99.90;;;;;;5044973;28;20071;-70
2022/09/15 02:04:28;;;;;;;5.45;2.35;;;13.00;99.90;;;;;;5044164;28;20048;-70
2022/09/15 02:07:06;;;;;;;6.22;2.85;;;13.00;99.90;;;;;;5049263;28;20047;-70
2022/09/15 02:09:37;;;;;;;9.00;3.35;;;13.00;99.90;;;;;;5026200;28;20032;-69
2022/09/15 02:12:32;;;;;;;7.18;2.90;;;13.00;99.90;;;;;;5044270;28;20048;-70
2022/09/15 02:15:06;;;;;;;11.07;3.72;;;13.00;99.90;;;;;;5043327;28;20043;-70
2022/09/15 02:17:37;;;;;;;8.50;2.97;;;13.00;99.90;;;;;;5042843;28;20398;-69
2022/09/15 02:20:07;;;;;;;9.75;3.33;;;13.00;99.90;;;;;;5044265;28;20056;-70
2022/09/15 02:22:38;;;;;;;5.57;3.10;;;13.00;99.90;;;;;;5040018;28;20051;-69
2022/09/15 02:25:29;;;;;;;8.10;3.25;;;13.00;99.90;;;;;;5044336;28;20047;-69
2022/09/15 02:28:01;;;;;;;6.25;2.92;;;13.10;99.90;;;;;;5038344;28;20490;-70
2022/09/15 02:30:30;;;;;;;4.28;2.83;;;13.10;99.90;;;;;;5042244;28;20043;-70
2022/09/15 02:32:59;;;;;;;8.05;2.90;;;13.10;99.90;;;;;;5045171;28;20041;-70
2022/09/15 02:35:27;;;;;;;5.70;2.85;;;13.10;99.90;;;;;;5029161;28;20491;-70
2022/09/15 02:37:55;;;;;;;7.13;2.72;;;13.10;99.90;;;;;;5026039;28;20037;-70
2022/09/15 02:40:21;;;;;;;7.65;2.78;;;13.10;99.90;;;;;;5039207;28;20049;-70
2022/09/15 02:42:55;;;;;;;5.20;2.90;;;13.10;99.90;;;;;;5014010;28;20103;-70
2022/09/15 02:45:24;;;;;;;8.20;2.55;;;13.10;99.90;;;;;;5038305;28;20037;-70
2022/09/15 02:47:50;;;;;;;5.32;2.15;;;13.10;99.90;;;;;;5026475;28;20374;-70
2022/09/15 02:50:17;;;;;;;6.35;2.10;;;13.10;99.90;;;;;;5025642;28;20037;-70
2022/09/15 02:52:43;;;;;;;5.22;1.98;;;13.10;99.90;;;;;;5043299;28;20429;-70
2022/09/15 02:55:09;;;;;;;9.63;2.22;;;13.10;99.90;;;;;;5043547;28;20039;-70
2022/09/15 02:57:35;;;;;;;5.88;1.90;;;13.20;99.90;;;;;;5016450;28;20080;-70
2022/09/15 03:00:12;;;;;;;7.18;2.50;;;13.20;99.90;;;;;;5025490;28;20065;-69
2022/09/15 03:02:39;;;;;;;5.95;2.15;;;13.20;99.90;;;;;;5046223;28;20550;-70
2022/09/15 03:05:06;;;;;;;9.63;2.80;;;13.20;99.90;;;;;;5024587;28;20346;-70
2022/09/15 03:07:32;;;;;;;6.88;2.17;;;13.20;99.90;;;;;;5046301;28;20029;-68
2022/09/15 03:09:58;;;;;;;5.88;2.35;;;13.20;99.90;;;;;;5048023;28;20482;-69
2022/09/15 03:12:24;;;;;;;6.20;2.25;;;13.20;99.90;;;;;;5046175;28;20048;-69
2022/09/15 03:14:50;;;;;;;4.68;1.95;;;13.30;99.90;;;;;;5023284;28;20072;-69
2022/09/15 03:17:16;;;;;;;6.55;2.17;;;13.20;99.90;;;;;;5027238;28;20045;-69
2022/09/15 03:19:43;;;;;;;5.55;2.30;;;13.20;99.90;;;;;;5031418;28;20135;-69
2022/09/15 03:22:09;;;;;;;4.47;2.28;;;13.20;99.90;;;;;;5047765;28;20033;-69
2022/09/15 03:24:36;;;;;;;6.47;2.38;;;13.20;99.90;;;;;;5013433;28;20029;-70
2022/09/15 03:27:02;;;;;;;6.55;2.60;;;13.20;99.90;;;;;;5030088;28;20534;-70
2022/09/15 03:29:28;;;;;;;6.35;2.13;;;13.20;99.90;;;;;;5045174;28;20040;-69
2022/09/15 03:31:53;;;;;;;5.03;2.33;;;13.20;99.90;;;;;;5044164;28;20037;-69
2022/09/15 03:34:19;;;;;;;8.68;2.15;;;13.20;99.90;;;;;;5025767;28;20041;-70
2022/09/15 03:36:45;;;;;;;7.72;2.20;;;13.20;99.90;;;;;;5041797;28;20049;-70
2022/09/15 03:39:11;;;;;;;4.75;2.10;;;13.20;99.90;;;;;;5029690;28;20573;-70
2022/09/15 03:41:37;;;;;;;10.75;2.30;;;13.20;99.90;;;;;;5044659;28;20405;-70
2022/09/15 03:44:03;;;;;;;4.72;2.15;;;13.20;99.90;;;;;;5046630;28;20041;-70
2022/09/15 03:46:29;;;;;;;5.00;2.30;;;13.20;99.90;;;;;;5041575;28;20033;-69
2022/09/15 03:48:56;;;;;;;8.73;2.00;;;13.20;99.90;;;;;;5058003;28;20394;-69
2022/09/15 03:51:22;;;;;;;5.32;2.20;;;13.20;99.90;;;;;;5047316;28;20490;-69
2022/09/15 03:53:48;;;;;;;9.52;2.38;;;13.20;99.90;;;;;;5030412;28;20064;-69
2022/09/15 03:56:25;;;;;;;7.78;2.20;;;13.20;99.90;;;;;;5044284;28;20065;-70
2022/09/15 03:58:52;;;;;;;6.65;2.30;;;13.10;99.90;;;;;;5044099;28;20375;-69
2022/09/15 04:01:19;;;;;;;8.77;2.20;;;13.20;99.90;;;;;;5038020;28;20093;-70
2022/09/15 04:03:45;;;;;;;6.93;1.90;;;13.10;99.90;;;;;;5038265;28;20033;-69
2022/09/15 04:06:12;;;;;;;7.03;1.95;;;13.10;99.90;;;;;;5040637;28;20033;-69
2022/09/15 04:08:38;;;;;;;4.90;2.20;;;13.10;99.90;;;;;;5012918;28;20048;-70
2022/09/15 04:11:09;;;;;;;5.05;1.83;;;13.10;99.90;;;;;;5044260;28;20075;-69
2022/09/15 04:13:36;;;;;;;10.55;2.08;;;13.10;99.90;;;;;;5041601;28;20129;-70
2022/09/15 04:16:04;;;;;;;4.63;1.70;;;13.10;99.90;;;;;;5013220;28;20724;-69
2022/09/15 04:18:32;;;;;;;5.47;2.00;;;13.10;99.90;;;;;;5041310;28;20041;-70
2022/09/15 04:21:10;;;;;;;10.40;2.58;;;13.10;99.90;;;;;;5038843;28;20051;-69
2022/09/15 04:23:36;;;;;;;5.53;1.70;;;13.10;99.90;;;;;;5042347;28;20076;-69
2022/09/15 04:26:07;;;;;;;8.18;1.80;;;13.00;99.90;;;;;;5029604;28;20073;-70
2022/09/15 04:28:35;;;;;;;5.13;2.03;;;13.00;99.90;;;;;;5040878;28;20037;-69
2022/09/15 04:31:10;;;;;;;4.68;1.77;;;13.00;99.90;;;;;;5038362;28;20362;-69
2022/09/15 04:33:37;;;;;;;7.25;2.03;;;13.00;99.90;;;;;;5042727;28;20120;-70
2022/09/15 04:36:06;;;;;;;6.40;2.00;;;13.00;99.90;;;;;;5045366;28;20057;-69
2022/09/15 04:38:32;;;;;;;5.68;1.80;;;12.90;99.90;;;;;;5042535;28;20465;-69
2022/09/15 04:40:58;;;;;;;9.35;2.50;;;13.00;99.90;;;;;;5035934;28;20044;-70
2022/09/15 04:43:25;;;;;;;5.60;1.77;;;12.90;99.90;;;;;;5040489;28;20505;-69
2022/09/15 04:45:52;;;;;;;3.92;1.50;;;12.90;99.90;;;;;;5041817;28;20580;-70
2022/09/15 04:48:18;;;;;;;7.18;1.92;;;12.90;99.90;;;;;;5050490;28;20047;-69
2022/09/15 04:50:44;;;;;;;7.82;2.00;;;12.90;99.90;;;;;;5027024;28;20456;-70
2022/09/15 04:53:10;;;;;;;11.18;2.40;;;12.90;99.90;;;;;;5038994;28;20029;-70
2022/09/15 04:55:35;;;;;;;7.20;1.90;;;12.90;99.90;;;;;;5037687;28;20079;-70
2022/09/15 04:58:02;;;;;;;4.88;1.70;;;12.90;99.90;;;;;;5025619;28;20971;-70
2022/09/15 05:00:30;;;;;;;7.20;1.83;;;12.80;99.90;;;;;;5009527;28;20083;-69
2022/09/15 05:02:57;;;;;;;6.55;2.08;;;12.80;99.90;;;;;;5027220;28;20068;-69
2022/09/15 05:05:22;;;;;;;9.98;1.80;;;12.80;99.90;;;;;;5040312;28;20041;-69
2022/09/15 05:07:48;;;;;;;3.83;1.80;;;12.80;99.90;;;;;;5036004;28;20106;-69
2022/09/15 05:10:14;;;;;;;5.60;2.05;;;12.80;99.90;;;;;;5027625;28;20578;-69
2022/09/15 05:12:40;;;;;;;9.30;2.00;;;12.80;99.90;;;;;;5041020;28;20047;-69
2022/09/15 05:15:06;;;;;;;5.57;1.80;;;12.80;99.90;;;;;;5025325;28;20426;-69
2022/09/15 05:17:32;;;;;;;6.85;2.05;;;12.70;99.90;;;;;;5023250;28;21624;-69
2022/09/15 05:19:59;;;;;;;5.90;2.10;;;12.70;99.90;;;;;;5025726;28;20052;-69
2022/09/15 05:22:26;;;;;;;7.32;2.25;;;12.70;99.90;;;;;;5024452;28;20129;-68
2022/09/15 05:24:52;;;;;;;4.28;2.08;;;12.60;99.90;;;;;;5026754;28;20397;-69
2022/09/15 05:27:17;;;;;;;5.57;2.10;;;12.60;99.90;;;;;;5038358;28;20580;-69
2022/09/15 05:29:43;;;;;;;8.15;2.30;;;12.60;99.90;;;;;;5040391;28;20489;-69
2022/09/15 05:32:09;;;;;;;5.95;1.98;;;12.60;99.90;;;;;;5035391;28;20492;-68
2022/09/15 05:34:35;;;;;;;5.00;2.20;;;12.70;99.90;;;;;;5023037;28;20037;-69
2022/09/15 05:37:01;;;;;;;4.30;2.25;;;12.70;99.90;;;;;;5037902;28;20128;-69
2022/09/15 05:39:27;;;;;;;5.25;1.95;;;12.70;99.90;;;;;;5020994;28;20535;-70
2022/09/15 05:41:54;;;;;;;8.05;2.22;;;12.70;99.90;;;;;;5024791;28;20053;-69
2022/09/15 05:44:20;;;;;;;4.65;2.45;;;12.70;99.90;;;;;;5023373;28;20135;-69
2022/09/15 05:46:46;;;;;;;8.23;2.03;;;12.70;99.90;;;;;;5026597;28;20087;-69
2022/09/15 05:49:12;;;;;;;3.30;1.40;;;12.70;99.90;;;;;;5021090;28;20045;-69
2022/09/15 05:51:38;;;;;;;6.10;1.67;;;12.80;99.90;;;;;;5028149;28;20324;-70
2022/09/15 05:54:04;;;;;;;7.15;2.20;;;12.80;99.90;;;;;;5041470;28;20075;-69
2022/09/15 05:56:30;;;;;;;8.48;2.00;;;12.80;99.90;;;;;;5043113;28;20498;-69
2022/09/15 05:58:56;;;;;;;4.82;1.52;;;12.80;99.90;;;;;;5041711;28;20073;-69
2022/09/15 06:01:24;;;;;;;5.22;1.48;;;12.80;99.90;;;;;;5026102;28;20047;-68
2022/09/15 06:03:50;;;;;;;5.30;1.58;;;12.80;99.90;;;;;;5036096;28;20107;-69
2022/09/15 06:06:17;;;;;;;6.38;1.77;;;12.80;99.90;;;;;;5038050;28;20037;-69
2022/09/15 06:08:45;;;;;;;7.60;2.00;;;12.90;99.90;;;;;;5018705;28;20037;-69
2022/09/15 06:11:17;;;;;;;7.43;1.60;;;12.90;99.90;;;;;;5042968;28;20048;-69
2022/09/15 06:13:44;;;;;;;8.13;1.67;;;12.90;99.90;;;;;;5041949;28;20033;-69
2022/09/15 06:16:17;;;;;;;5.75;1.55;;;12.90;99.90;;;;;;5036455;28;20032;-69
2022/09/15 06:18:42;;;;;;;7.45;1.60;;;12.90;99.90;;;;;;5037008;28;20041;-69
2022/09/15 06:21:17;;;;;;;7.45;1.70;;;12.90;99.90;;;;;;5019897;28;20047;-69
2022/09/15 06:23:43;;;;;;;7.53;2.00;;;12.90;99.90;;;;;;5023232;28;20040;-69
2022/09/15 06:26:12;;;;;;;6.95;2.08;;;12.90;99.90;;;;;;5023944;28;20727;-69
2022/09/15 06:28:39;;;;;;;8.02;1.55;;;12.90;99.90;;;;;;5041451;28;20041;-69
2022/09/15 06:31:10;;;;;;;5.68;1.63;;;13.00;99.90;;;;;;5030507;28;20041;-70
2022/09/15 06:33:39;;;;;;;4.40;2.08;;;13.00;99.90;;;;;;5039128;28;20040;-69
2022/09/15 06:36:06;;;;;;;5.85;1.60;;;13.00;99.90;;;;;;5043890;28;20457;-69
2022/09/15 06:38:32;;;;;;;9.45;2.65;;;13.00;99.90;;;;;;5024193;28;20052;-69
2022/09/15 06:40:58;;;;;;;5.55;1.40;;;13.10;99.90;;;;;;5022590;28;20049;-69
2022/09/15 06:43:24;;;;;;;7.38;2.03;;;13.10;99.90;;;;;;5044486;28;20044;-68
2022/09/15 06:45:51;;;;;;;4.10;1.60;;;13.20;99.90;;;;;;5041997;28;20120;-69
2022/09/15 06:48:17;;;;;;;6.00;1.58;;;13.20;99.90;;;;;;5030990;28;20133;-69
2022/09/15 06:50:43;;;;;;;4.85;1.35;;;13.20;99.90;;;;;;5024980;28;20033;-69
2022/09/15 06:53:09;;;;;;;6.30;1.75;;;13.30;99.90;;;;;;5026029;28;20043;-69
2022/09/15 06:55:35;;;;;;;7.82;2.28;;;13.30;99.90;;;;;;5032031;28;20133;-69
2022/09/15 06:58:01;;;;;;;4.30;1.60;;;13.30;99.90;;;;;;5022961;28;20168;-69
2022/09/15 07:00:28;;;;;;;4.97;1.90;;;13.30;99.90;;;;;;5041320;28;20431;-69
2022/09/15 07:02:54;;;;;;;6.80;2.00;;;13.40;99.90;;;;;;5028887;28;20044;-69
2022/09/15 07:05:20;;;;;;;6.18;1.65;;;13.40;99.90;;;;;;5040846;28;20037;-69
2022/09/15 07:07:46;;;;;;;5.10;1.65;;;13.40;99.90;;;;;;5041096;28;20512;-69
2022/09/15 07:10:11;;;;;;;8.95;1.92;;;13.50;99.90;;;;;;5028455;28;20083;-69
2022/09/15 07:12:37;;;;;;;6.32;1.90;;;13.60;99.90;;;;;;5046376;28;20052;-69
2022/09/15 07:15:04;;;;;;;6.03;1.55;;;13.70;99.90;;;;;;5030210;28;20457;-69
2022/09/15 07:17:29;;;;;;;5.88;2.10;;;13.80;99.90;;;;;;5028536;28;20052;-69
2022/09/15 07:19:55;;;;;;;8.15;2.35;;;13.80;99.90;;;;;;5028130;28;20352;-69
2022/09/15 07:22:23;;;;;;;3.90;1.67;;;13.90;99.90;;;;;;5043102;28;20072;-69
2022/09/15 07:24:48;;;;;;;6.93;1.63;;;13.90;99.90;;;;;;5026549;28;20040;-69
2022/09/15 07:27:14;;;;;;;6.35;1.55;;;13.90;99.90;;;;;;5037615;28;20033;-69
2022/09/15 07:29:40;;;;;;;8.10;1.63;;;14.00;99.90;;;;;;5010069;28;20052;-69
2022/09/15 07:32:06;;;;;;;7.35;1.83;;;14.10;99.90;;;;;;5042291;28;20037;-69
2022/09/15 07:34:34;;;;;;;7.90;1.67;;;14.20;99.90;;;;;;5044997;28;20132;-69
2022/09/15 07:37:00;;;;;;;7.65;1.73;;;14.20;99.90;;;;;;5039629;28;20114;-69
2022/09/15 07:39:26;;;;;;;4.70;1.67;;;14.40;99.90;;;;;;5011436;28;20057;-69
2022/09/15 07:41:52;;;;;;;5.53;1.25;;;14.40;99.90;;;;;;5026846;28;20045;-69
2022/09/15 07:44:17;;;;;;;6.95;1.60;;;14.50;99.90;;;;;;5026593;28;20063;-68
2022/09/15 07:46:43;;;;;;;7.85;1.70;;;14.60;99.90;;;;;;5043531;28;20044;-70
2022/09/15 07:49:09;;;;;;;13.15;2.42;;;14.70;99.90;;;;;;5043324;28;20095;-69
2022/09/15 07:51:35;;;;;;;6.88;1.70;;;14.80;99.90;;;;;;5043519;28;20055;-69
2022/09/15 07:54:01;;;;;;;6.10;1.50;;;14.90;99.90;;;;;;5029618;28;20502;-69
2022/09/15 07:56:27;;;;;;;4.57;1.80;;;14.90;99.90;;;;;;5031644;28;20056;-67
2022/09/15 07:58:52;;;;;;;6.47;1.42;;;14.90;99.90;;;;;;5034115;28;20072;-68
2022/09/15 08:01:21;;;;;;;6.30;1.55;;;14.90;99.90;;;;;;5032874;28;20462;-69
2022/09/15 08:03:49;;;;;;;7.00;1.65;;;15.00;99.90;;;;;;5033772;28;20063;-70
2022/09/15 08:06:18;;;;;;;5.32;1.75;;;15.00;99.90;;;;;;5032746;28;20045;-69
2022/09/15 08:08:45;;;;;;;3.47;1.10;;;15.10;99.90;;;;;;5047800;28;20572;-69
2022/09/15 08:11:16;;;;;;;3.53;1.20;;;15.20;99.90;;;;;;5015003;28;20041;-69
2022/09/15 08:13:43;;;;;;;4.78;1.42;;;15.30;99.90;;;;;;5041250;28;20066;-68
2022/09/15 08:16:20;;;;;;;5.82;1.20;;;15.30;99.90;;;;;;5044397;28;20460;-68
2022/09/15 08:18:47;;;;;;;7.00;1.70;;;15.30;99.90;;;;;;5041297;28;20446;-68
2022/09/15 08:21:16;;;;;;;4.07;1.23;;;15.40;99.90;;;;;;5051143;28;20045;-69
2022/09/15 08:23:42;;;;;;;3.83;1.38;;;15.50;99.90;;;;;;5047945;28;20037;-69
2022/09/15 08:26:10;;;;;;;5.35;1.52;;;15.60;99.90;;;;;;5047731;28;20099;-69
2022/09/15 08:28:37;;;;;;;6.25;1.42;;;15.70;99.90;;;;;;5050659;28;20029;-69
2022/09/15 08:31:05;;;;;;;6.93;1.20;;;15.70;99.90;;;;;;5038163;28;20041;-68
2022/09/15 08:33:32;;;;;;;3.50;1.05;;;15.90;99.90;;;;;;5043410;28;20048;-68
2022/09/15 08:36:09;;;;;;;2.85;1.15;;;16.00;99.90;;;;;;5039822;28;20532;-69
2022/09/15 08:38:38;;;;;;;5.90;1.75;;;16.10;99.90;;;;;;5041290;28;20037;-66
2022/09/15 08:41:13;;;;;;;2.35;0.70;;;16.00;99.90;;;;;;5041795;28;20475;-69
2022/09/15 08:43:46;;;;;;;1.98;1.05;;;16.00;99.90;;;;;;5025162;28;20041;-69
2022/09/15 08:46:18;;;;;;;5.35;1.38;;;16.00;99.90;;;;;;5039264;28;20041;-68
2022/09/15 08:49:04;;;;;;;3.45;1.30;;;15.90;99.90;;;;;;5046289;28;20124;-69
2022/09/15 08:51:43;;;;;;;4.15;1.35;;;16.00;99.90;;;;;;5043659;28;20502;-69
2022/09/15 08:54:19;;;;;;;4.10;1.33;;;16.30;99.90;;;;;;5040654;28;20045;-69
2022/09/15 08:56:46;;;;;;;5.75;1.65;;;16.60;99.90;;;;;;5028764;28;20044;-70
2022/09/15 08:59:14;;;;;;;7.38;1.35;;;16.90;99.90;;;;;;5037463;28;20040;-68
2022/09/15 09:01:46;;;;;;;2.28;1.27;;;17.00;99.90;;;;;;5044873;28;20628;-67
2022/09/15 09:04:18;;;;;;;5.18;1.40;;;17.20;99.90;;;;;;5031390;28;20088;-68
2022/09/15 09:07:03;;;;;;;5.80;1.48;;;17.30;99.90;;;;;;5046740;28;20029;-69
2022/09/15 09:09:40;;;;;;;3.90;1.23;;;17.40;99.90;;;;;;5023643;28;20045;-69
2022/09/15 09:12:43;;;;;;;7.93;2.38;;;17.40;99.90;;;;;;5028440;28;20124;-70
2022/09/15 09:15:24;;;;;;;;;;;17.60;99.90;;;;;;5045445;28;20051;-68
2022/09/15 09:18:29;;;;;;;6.20;1.13;;;17.60;99.90;;;;;;5039510;28;20401;-69
2022/09/15 09:21:25;;;;;;;2.92;0.93;;;17.80;99.90;;;;;;5036718;28;20111;-69
2022/09/15 09:24:15;;;;;;;4.90;1.35;;;17.90;99.90;;;;;;5039682;28;20041;-69
2022/09/15 09:26:42;;;;;;;12.63;2.05;;;18.00;99.90;;;;;;5040806;28;20041;-69
2022/09/15 09:29:18;;;;;;;5.18;1.42;;;18.00;99.90;;;;;;5041860;28;20087;-68
2022/09/15 09:31:50;;;;;;;3.03;1.10;;;18.10;99.90;;;;;;5022832;28;20045;-69
2022/09/15 09:34:35;;;;;;;5.10;1.43;;;18.20;99.90;;;;;;5041815;28;20523;-69
2022/09/15 09:37:15;;;;;;;2.40;0.95;;;18.20;99.90;;;;;;5037853;28;20310;-69
2022/09/15 09:39:41;;;;;;;8.10;1.48;;;18.50;99.90;;;;;;5025653;28;20048;-69
2022/09/15 09:42:17;;;;;;;4.35;1.77;;;18.60;99.90;;;;;;5032583;28;20044;-69
2022/09/15 09:44:44;;;;;;;7.28;1.70;;;18.50;99.90;;;;;;5048737;28;20056;-69
2022/09/15 09:47:12;;;;;;;2.33;1.08;;;18.50;99.90;;;;;;5036409;28;20048;-70
2022/09/15 09:49:48;;;;;;;3.10;1.30;;;18.40;99.90;;;;;;5019525;28;20745;-69
2022/09/15 09:52:35;;;;;;;11.52;1.90;;;18.50;99.90;;;;;;5036016;28;20033;-69
2022/09/15 09:55:14;;;;;;;6.28;2.28;;;18.30;98.30;;;;;;5032308;28;20033;-69
2022/09/15 09:57:40;;;;;;;4.80;1.23;;;18.10;98.20;;;;;;5016356;28;20490;-69
2022/09/15 10:00:28;;;;;;;5.07;1.27;;;18.00;99.80;;;;;;5031306;28;20052;-69
2022/09/15 10:02:54;;;;;;;5.25;1.42;;;17.90;99.30;;;;;;5034538;28;20056;-69
2022/09/15 10:05:20;;;;;;;4.70;1.30;;;17.90;99.90;;;;;;5017347;28;20045;-69
2022/09/15 10:07:46;;;;;;;5.00;1.08;;;17.90;99.90;;;;;;5037620;28;20045;-69
2022/09/15 10:10:24;;;;;;;3.95;1.45;;;18.00;99.90;;;;;;5038327;28;20052;-69
2022/09/15 10:12:55;;;;;;;3.47;1.45;;;18.00;99.90;;;;;;5055400;28;20036;-70
2022/09/15 10:15:27;;;;;;;6.20;1.58;;;18.00;99.90;;;;;;5033781;28;20091;-69
2022/09/15 10:17:55;;;;;;;3.65;1.25;;;18.00;99.70;;;;;;5039325;28;20044;-69
2022/09/15 10:20:27;;;;;;;2.95;1.20;;;17.90;99.80;;;;;;5040484;28;20046;-69
2022/09/15 10:23:21;;;;;;;4.70;1.33;;;17.90;99.90;;;;;;5037544;28;20449;-69
2022/09/15 10:25:47;;;;;;;7.25;1.48;;;17.90;99.90;;;;;;5036791;28;20051;-69
2022/09/15 10:28:20;;;;;;;3.78;1.42;;;17.90;99.90;;;;;;5043048;28;20048;-70
2022/09/15 10:31:09;;;;;;;5.60;1.52;;;18.00;99.90;;;;;;5043467;28;20040;-69
2022/09/15 10:33:46;;;;;;;3.75;1.35;;;18.00;99.90;;;;;;5035975;28;20513;-69
2022/09/15 10:36:15;;;;;;;6.40;1.38;;;18.00;99.90;;;;;;5042650;28;20111;-69
2022/09/15 10:38:52;;;;;;;3.78;1.30;;;17.90;99.90;;;;;;5033162;28;20126;-69
2022/09/15 10:41:27;;;;;;;5.97;2.28;;;17.70;99.90;;;;;;5037019;28;20502;-69
2022/09/15 10:44:31;;;;;;;4.07;1.10;;;17.40;99.90;;;;;;5035960;28;20049;-69
2022/09/15 10:47:27;;;;;;;4.13;1.48;;;17.00;99.90;;;;;;5038014;28;20041;-69
2022/09/15 10:50:15;;;;;;;4.47;1.10;;;16.70;99.90;;;;;;5052428;28;20513;-68
2022/09/15 10:52:51;;;;;;;5.97;1.42;;;16.60;99.90;;;;;;5040540;28;20608;-69
2022/09/15 10:55:19;;;;;;;3.30;1.27;;;16.70;99.90;;;;;;5024941;28;20042;-69
2022/09/15 10:58:05;;;;;;;6.85;1.42;;;17.10;99.90;;;;;;5034284;28;20067;-70
2022/09/15 11:00:43;;;;;;;3.50;1.10;;;17.20;99.90;;;;;;5032144;28;20045;-70
2022/09/15 11:03:56;;;;;;;3.60;1.23;;;17.40;99.90;;;;;;5016930;28;20041;-70
2022/09/15 11:06:25;;;;;;;5.05;1.02;;;17.50;99.90;;;;;;4960169;28;20046;-69
2022/09/15 11:09:09;;;;;;;1.52;0.90;;;17.90;99.90;;;;;;5014734;28;20507;-69
2022/09/15 11:11:43;;;;;;;1.65;1.13;;;18.00;99.90;;;;;;5032028;28;20052;-69
2022/09/15 11:14:11;;;;;;;3.40;1.23;;;17.70;99.90;;;;;;5029334;28;20490;-69
2022/09/15 11:16:47;;;;;;;4.93;1.45;;;17.30;99.90;;;;;;5031413;28;20556;-70
2022/09/15 11:19:43;;;;;;;3.50;1.15;;;17.10;99.90;;;;;;5023421;28;20051;-70
2022/09/15 11:22:31;;;;;;;2.05;0.80;;;16.90;99.90;;;;;;5038849;28;20474;-70
2022/09/15 11:25:12;;;;;;;3.15;1.08;;;16.80;99.90;;;;;;5045226;28;20112;-70
2022/09/15 11:28:15;;;;;;;2.55;1.00;;;16.70;99.90;;;;;;5030934;28;20077;-70
2022/09/15 11:30:49;;;;;;;2.47;1.35;;;16.70;99.90;;;;;;5027225;28;20037;-70
2022/09/15 11:33:25;;;;;;;6.15;1.38;;;16.60;99.90;;;;;;5015865;28;20033;-71
2022/09/15 11:36:06;;;;;;;3.17;1.08;;;16.50;99.90;;;;;;5018901;28;20053;-69
2022/09/15 11:38:51;;;;;;;5.32;0.95;;;16.40;99.90;;;;;;5035798;28;20494;-71
2022/09/15 11:41:29;;;;;;;4.13;1.08;;;16.40;99.90;;;;;;5019101;28;20045;-70
2022/09/15 11:44:22;;;;;;;5.90;1.65;;;16.60;99.90;;;;;;5006999;28;20525;-70
2022/09/15 11:47:03;;;;;;;2.40;0.98;;;16.80;99.90;;;;;;5051899;28;20060;-70
2022/09/15 11:49:47;;;;;;;2.47;1.00;;;17.10;99.90;;;;;;5033246;28;20687;-71
2022/09/15 11:52:31;;;;;;;5.28;1.40;;;17.30;99.90;;;;;;5034329;28;20033;-70
2022/09/15 11:55:05;;;;;;;4.10;1.10;;;17.40;99.90;;;;;;5034184;28;20045;-70
2022/09/15 11:57:40;;;;;;;4.10;1.67;;;17.80;99.90;;;;;;5039691;28;20417;-70
2022/09/15 12:00:13;;;;;;;2.75;1.45;;;17.80;99.90;;;;;;5033108;28;20045;-70
2022/09/15 12:02:50;;;;;;;3.17;1.10;;;17.70;99.90;;;;;;5051736;28;20049;-70
2022/09/15 12:05:19;;;;;;;5.15;1.35;;;17.60;99.90;;;;;;5031392;28;21421;-70
2022/09/15 12:08:13;;;;;;;8.30;1.35;;;17.50;99.90;;;;;;5033047;28;20048;-70
2022/09/15 12:10:42;;;;;;;3.47;1.17;;;17.40;99.90;;;;;;5032319;28;20048;-70
2022/09/15 12:13:18;;;;;;;3.40;1.10;;;17.30;99.90;;;;;;5030622;28;20100;-70
2022/09/15 12:15:45;;;;;;;3.22;1.05;;;17.20;99.90;;;;;;5034111;28;20044;-71
2022/09/15 12:18:41;;;;;;;3.63;1.02;;;17.20;99.90;;;;;;5017671;28;20458;-70
2022/09/15 12:21:22;;;;;;;6.80;1.35;;;17.30;99.90;;;;;;5030626;28;20052;-70
2022/09/15 12:24:29;;;;;;;6.00;1.73;;;17.60;99.90;;;;;;5015744;28;20045;-70
2022/09/15 12:26:59;;;;;;;2.85;1.00;;;18.00;99.90;;;;;;5029527;28;20521;-70
2022/09/15 12:29:25;;;;;;;3.92;1.00;;;18.30;99.90;;;;;;5028503;28;20055;-70
2022/09/15 12:32:18;;;;;;;2.85;1.10;;;18.40;99.90;;;;;;5017989;28;20037;-70
2022/09/15 12:34:57;;;;;;;2.65;0.95;;;18.30;99.90;;;;;;5020876;28;20159;-70
2022/09/15 12:37:24;;;;;;;5.03;1.40;;;18.40;99.90;;;;;;5043132;28;20499;-70
2022/09/15 12:39:50;;;;;;;3.30;0.93;;;18.50;99.90;;;;;;5025302;28;20045;-70
2022/09/15 12:42:26;;;;;;;2.70;1.27;;;18.80;99.90;;;;;;5037752;28;20115;-70
2022/09/15 12:44:55;;;;;;;4.05;1.25;;;19.00;99.90;;;;;;5022087;28;20048;-70
2022/09/15 12:47:36;;;;;;;3.47;1.30;;;19.20;99.90;;;;;;5025627;28;20119;-70
2022/09/15 12:50:24;;;;;;;4.40;0.90;;;19.20;99.90;;;;;;5036650;28;20072;-70
2022/09/15 12:52:58;;;;;;;2.10;0.88;;;19.10;99.80;;;;;;5027116;28;20485;-70
2022/09/15 12:55:33;;;;;;;3.38;0.93;;;19.00;99.90;;;;;;5039546;28;20041;-70
2022/09/15 12:58:14;;;;;;;2.75;1.20;;;19.00;99.50;;;;;;5022503;28;20041;-70
2022/09/15 13:00:43;;;;;;;1.98;0.90;;;19.00;99.30;;;;;;5039227;28;20517;-70
2022/09/15 13:03:37;;;;;;;2.03;1.05;;;19.00;98.80;;;;;;5018167;28;20555;-70
2022/09/15 13:06:17;;;;;;;3.20;0.90;;;19.30;97.80;;;;;;5037829;28;20445;-70
2022/09/15 13:08:48;;;;;;;3.38;1.20;;;19.40;97.70;;;;;;5035036;28;20064;-70
2022/09/15 13:11:16;;;;;;;1.33;0.80;;;19.10;97.70;;;;;;5039247;28;20114;-70